createdAt,value
2023-05-05T00:01:14.313Z,7.55
2023-05-05T00:04:17.842Z,7.30
2023-05-05T00:07:19.676Z,8.45
2023-05-05T00:10:21.789Z,8.27
2023-05-05T00:13:23.947Z,7.60
2023-05-05T00:16:25.929Z,7.45
2023-05-05T00:19:27.877Z,6.47
2023-05-05T00:22:29.607Z,5.95
2023-05-05T00:25:31.278Z,6.45
2023-05-05T00:28:33.149Z,8.30
2023-05-05T00:31:34.999Z,8.52
2023-05-05T00:34:36.756Z,6.55
2023-05-05T00:37:38.480Z,5.90
2023-05-05T00:40:40.269Z,6.25
2023-05-05T00:43:42.094Z,7.82
2023-05-05T00:46:44.270Z,5.80
2023-05-05T00:49:46.376Z,6.15
2023-05-05T00:52:48.582Z,5.63
2023-05-05T00:55:51.239Z,7.82
2023-05-05T00:58:53.593Z,8.20
2023-05-05T01:01:55.479Z,6.57
2023-05-05T01:04:58.387Z,6.53
2023-05-05T01:08:09.368Z,9.82
2023-05-05T01:11:20.710Z,7.78
2023-05-05T01:14:45.217Z,7.40
2023-05-05T01:17:56.122Z,6.07
2023-05-05T01:21:08.082Z,9.85
2023-05-05T01:24:39.074Z,7.53
2023-05-05T01:28:13.934Z,6.93
2023-05-05T01:31:42.232Z,10.00
2023-05-05T01:34:48.242Z,8.15
2023-05-05T01:37:59.177Z,7.15
2023-05-05T01:44:15.256Z,6.63
2023-05-05T01:47:19.462Z,7.97
2023-05-05T01:50:22.261Z,12.32
2023-05-05T01:53:25.782Z,6.68
2023-05-05T01:56:29.145Z,7.03
2023-05-05T01:59:32.569Z,6.68
2023-05-05T02:02:36.309Z,6.05
2023-05-05T02:05:39.947Z,8.27
2023-05-05T02:08:43.340Z,4.90
2023-05-05T02:11:45.468Z,6.60
2023-05-05T02:14:48.110Z,6.88
2023-05-05T02:17:52.855Z,9.75
2023-05-05T02:20:55.080Z,6.32
2023-05-05T02:23:57.130Z,8.65
2023-05-05T02:27:02.743Z,6.80
2023-05-05T02:30:08.699Z,6.88
2023-05-05T02:33:16.517Z,8.55
2023-05-05T02:36:21.948Z,6.45
2023-05-05T02:39:47.055Z,7.90
2023-05-05T02:42:57.098Z,6.45
2023-05-05T02:46:03.698Z,6.70
2023-05-05T02:49:07.350Z,6.93
2023-05-05T02:52:10.270Z,8.35
2023-05-05T02:55:15.730Z,8.52
2023-05-05T02:58:34.647Z,9.52
2023-05-05T03:02:06.914Z,6.47
2023-05-05T03:05:15.901Z,6.72
2023-05-05T03:09:02.276Z,6.43
2023-05-05T03:12:17.066Z,6.65
2023-05-05T03:15:36.452Z,7.20
2023-05-05T03:18:39.894Z,8.00
2023-05-05T03:21:42.441Z,9.23
2023-05-05T03:24:49.878Z,7.30
2023-05-05T03:27:52.444Z,6.95
2023-05-05T03:30:57.014Z,9.05
2023-05-05T03:33:59.705Z,9.93
2023-05-05T03:37:06.818Z,6.88
2023-05-05T03:40:09.637Z,8.77
2023-05-05T03:43:11.990Z,8.23
2023-05-05T03:46:15.020Z,10.07
2023-05-05T03:49:19.354Z,7.50
2023-05-05T03:52:23.231Z,7.40
2023-05-05T03:55:25.164Z,11.40
2023-05-05T03:58:26.912Z,5.65
2023-05-05T04:01:30.066Z,7.78
2023-05-05T04:04:32.899Z,6.70
2023-05-05T04:07:34.867Z,11.18
2023-05-05T04:10:37.196Z,7.70
2023-05-05T04:13:40.233Z,8.95
2023-05-05T04:16:42.250Z,7.18
2023-05-05T04:19:44.570Z,7.53
2023-05-05T04:22:47.905Z,9.40
2023-05-05T04:25:50.149Z,6.68
2023-05-05T04:28:52.412Z,9.40
2023-05-05T04:31:54.599Z,8.52
2023-05-05T04:34:56.463Z,9.63
2023-05-05T04:37:58.867Z,8.45
2023-05-05T04:41:00.867Z,9.40
2023-05-05T04:44:03.352Z,7.25
2023-05-05T04:47:05.859Z,10.27
2023-05-05T04:50:09.459Z,6.95
2023-05-05T04:53:11.538Z,8.65
2023-05-05T04:56:14.138Z,7.75
2023-05-05T04:59:16.451Z,8.85
2023-05-05T05:02:18.617Z,8.73
2023-05-05T05:05:25.155Z,13.65
2023-05-05T05:08:27.002Z,7.68
2023-05-05T05:11:29.114Z,8.30
2023-05-05T05:14:37.170Z,8.88
2023-05-05T05:17:39.331Z,11.80
2023-05-05T05:20:41.402Z,13.63
2023-05-05T05:23:43.934Z,11.65
2023-05-05T05:26:46.079Z,8.57
2023-05-05T05:29:48.077Z,8.57
2023-05-05T05:32:50.562Z,7.43
2023-05-05T05:35:53.149Z,9.30
2023-05-05T05:38:57.883Z,10.20
2023-05-05T05:41:59.855Z,12.10
2023-05-05T05:45:02.187Z,9.27
2023-05-05T05:48:05.379Z,7.82
2023-05-05T05:51:07.451Z,7.72
2023-05-05T05:54:09.367Z,7.88
2023-05-05T05:57:11.525Z,9.55
2023-05-05T06:00:14.444Z,8.18
2023-05-05T06:03:21.185Z,10.13
2023-05-05T06:06:26.222Z,9.70
2023-05-05T06:09:28.172Z,8.05
2023-05-05T06:12:31.035Z,8.38
2023-05-05T06:15:33.136Z,7.65
2023-05-05T06:18:37.375Z,10.32
2023-05-05T06:21:39.381Z,13.32
2023-05-05T06:24:42.586Z,6.85
2023-05-05T06:27:44.767Z,9.65
2023-05-05T06:30:47.580Z,12.07
2023-05-05T06:33:49.472Z,8.88
2023-05-05T06:36:51.786Z,9.45
2023-05-05T06:39:53.621Z,8.80
2023-05-05T06:42:55.682Z,8.98
2023-05-05T06:46:02.455Z,8.18
2023-05-05T06:49:04.463Z,11.48
2023-05-05T06:52:08.240Z,9.02
2023-05-05T06:55:10.276Z,9.32
2023-05-05T06:58:12.525Z,7.93
2023-05-05T07:01:14.659Z,8.27
2023-05-05T07:04:16.534Z,9.60
2023-05-05T07:07:18.415Z,9.77
2023-05-05T07:10:21.533Z,14.75
2023-05-05T07:13:23.298Z,9.90
2023-05-05T07:16:28.850Z,19.60
2023-05-05T07:19:30.824Z,10.25
2023-05-05T07:22:32.798Z,9.48
2023-05-05T07:25:35.015Z,9.77
2023-05-05T07:28:36.974Z,11.45
2023-05-05T07:31:38.897Z,9.52
2023-05-05T07:34:41.119Z,9.77
2023-05-05T07:37:46.071Z,9.57
2023-05-05T07:40:47.809Z,10.35
2023-05-05T07:43:49.580Z,10.23
2023-05-05T07:46:51.306Z,10.68
2023-05-05T07:49:53.566Z,7.05
2023-05-05T07:53:02.455Z,9.82
2023-05-05T07:56:15.565Z,11.07
2023-05-05T07:59:17.534Z,7.68
2023-05-05T08:02:22.750Z,9.05
2023-05-05T08:05:24.605Z,8.40
2023-05-05T08:08:27.393Z,9.10
2023-05-05T08:11:29.687Z,10.35
2023-05-05T08:14:31.926Z,7.95
2023-05-05T08:17:55.803Z,9.63
2023-05-05T08:20:57.742Z,9.05
2023-05-05T08:23:59.713Z,6.75
2023-05-05T08:27:01.975Z,8.48
2023-05-05T08:30:04.657Z,8.77
2023-05-05T08:33:06.820Z,12.57
2023-05-05T08:36:09.195Z,9.48
2023-05-05T08:39:11.025Z,7.22
2023-05-05T08:42:19.622Z,8.65
2023-05-05T08:45:29.848Z,6.57
2023-05-05T08:48:34.386Z,9.35
2023-05-05T08:51:44.262Z,9.15
2023-05-05T08:54:51.929Z,11.40
2023-05-05T08:57:53.638Z,8.57
2023-05-05T09:00:56.573Z,9.32
2023-05-05T09:03:59.401Z,10.70
2023-05-05T09:07:01.820Z,7.90
2023-05-05T09:10:05.277Z,9.40
2023-05-05T09:13:09.416Z,7.53
2023-05-05T09:16:11.652Z,7.90
2023-05-05T09:19:13.715Z,8.75
2023-05-05T09:22:15.906Z,11.50
2023-05-05T09:25:18.631Z,9.15
2023-05-05T09:28:20.775Z,16.80
2023-05-05T09:31:23.420Z,11.25
2023-05-05T09:34:25.783Z,9.15
2023-05-05T09:37:34.056Z,8.25
2023-05-05T09:40:53.788Z,9.80
2023-05-05T09:43:56.016Z,10.27
2023-05-05T09:46:58.533Z,8.75
2023-05-05T09:50:00.740Z,10.57
2023-05-05T09:53:03.582Z,9.95
2023-05-05T09:56:05.847Z,9.73
2023-05-05T09:59:11.252Z,8.98
2023-05-05T10:02:16.697Z,10.90
2023-05-05T10:05:19.526Z,7.85
2023-05-05T10:08:24.092Z,10.20
2023-05-05T10:11:26.409Z,8.20
2023-05-05T10:14:37.204Z,8.98
2023-05-05T10:18:05.921Z,10.82
2023-05-05T10:21:12.243Z,11.65
2023-05-05T10:24:39.222Z,10.27
2023-05-05T10:27:46.727Z,10.77
2023-05-05T10:30:51.442Z,9.57
2023-05-05T10:33:59.875Z,10.30
2023-05-05T10:37:02.342Z,7.95
2023-05-05T10:40:06.597Z,9.32
2023-05-05T10:43:08.839Z,8.60
2023-05-05T10:46:11.519Z,10.35
2023-05-05T10:49:43.091Z,8.15
2023-05-05T10:53:23.009Z,8.48
2023-05-05T10:56:30.440Z,9.23
2023-05-05T10:59:38.929Z,9.05
2023-05-05T11:02:42.074Z,9.20
2023-05-05T11:06:09.257Z,9.93
2023-05-05T11:09:29.920Z,11.02
2023-05-05T11:12:33.661Z,9.07
2023-05-05T11:15:38.140Z,12.63
2023-05-05T11:18:43.289Z,12.20
2023-05-05T11:22:02.044Z,11.40
2023-05-05T11:25:41.706Z,11.85
2023-05-05T11:29:04.321Z,12.15
2023-05-05T11:32:20.134Z,15.73
2023-05-05T11:35:22.183Z,15.38
2023-05-05T11:38:32.865Z,13.93
2023-05-05T11:42:18.111Z,15.98
2023-05-05T11:45:22.081Z,14.40
2023-05-05T11:48:27.525Z,13.98
2023-05-05T11:51:29.414Z,19.35
2023-05-05T11:54:32.813Z,13.55
2023-05-05T11:57:34.814Z,13.38
2023-05-05T12:00:37.283Z,10.43
2023-05-05T12:03:40.009Z,10.02
2023-05-05T12:06:42.881Z,11.18
2023-05-05T12:09:47.207Z,10.27
2023-05-05T12:12:49.680Z,10.40
2023-05-05T12:15:51.877Z,11.88
2023-05-05T12:19:05.885Z,11.23
2023-05-05T12:22:07.940Z,10.43
2023-05-05T12:25:10.461Z,9.82
2023-05-05T12:28:12.274Z,11.00
2023-05-05T12:31:14.481Z,10.70
2023-05-05T12:34:17.137Z,10.68
2023-05-05T12:37:19.395Z,10.00
2023-05-05T12:40:52.078Z,9.60
2023-05-05T12:43:58.444Z,11.30
2023-05-05T12:47:00.563Z,10.48
2023-05-05T12:50:03.936Z,9.80
2023-05-05T12:53:05.911Z,10.95
2023-05-05T12:56:34.914Z,10.25
2023-05-05T12:59:36.740Z,10.45
2023-05-05T13:02:38.841Z,9.70
2023-05-05T13:05:41.261Z,10.48
2023-05-05T13:08:43.503Z,10.20
2023-05-05T13:11:45.469Z,10.93
2023-05-05T13:14:48.059Z,8.90
2023-05-05T13:17:50.147Z,9.80
2023-05-05T13:20:52.337Z,11.88
2023-05-05T13:23:55.962Z,11.00
2023-05-05T13:27:04.416Z,10.75
2023-05-05T13:30:07.427Z,10.43
2023-05-05T13:33:09.801Z,11.05
2023-05-05T13:36:12.141Z,9.10
2023-05-05T13:39:14.282Z,20.25
2023-05-05T13:42:16.392Z,10.98
2023-05-05T13:45:19.790Z,9.38
2023-05-05T13:48:24.600Z,9.35
2023-05-05T13:51:26.577Z,10.20
2023-05-05T13:54:28.664Z,10.20
2023-05-05T13:57:31.630Z,8.48
2023-05-05T14:00:35.013Z,10.00
2023-05-05T14:03:39.516Z,9.98
2023-05-05T14:06:41.619Z,12.82
2023-05-05T14:09:43.830Z,11.32
2023-05-05T14:12:46.010Z,10.02
2023-05-05T14:15:50.300Z,8.55
2023-05-05T14:18:53.916Z,9.00
2023-05-05T14:21:56.089Z,9.30
2023-05-05T14:24:58.688Z,11.77
2023-05-05T14:28:00.669Z,9.60
2023-05-05T14:31:02.695Z,9.02
2023-05-05T14:34:04.831Z,10.73
2023-05-05T14:37:06.705Z,11.20
2023-05-05T14:40:09.291Z,9.32
2023-05-05T14:43:11.805Z,8.18
2023-05-05T14:46:13.756Z,8.98
2023-05-05T14:49:15.535Z,9.65
2023-05-05T14:52:17.100Z,9.07
2023-05-05T14:55:19.223Z,9.77
2023-05-05T14:58:23.755Z,8.70
2023-05-05T15:01:26.113Z,11.05
2023-05-05T15:04:28.273Z,8.88
2023-05-05T15:07:30.186Z,10.02
2023-05-05T15:10:32.664Z,12.05
2023-05-05T15:13:35.895Z,11.45
2023-05-05T15:16:38.061Z,9.07
2023-05-05T15:19:39.939Z,11.23
2023-05-05T15:22:41.890Z,10.88
2023-05-05T15:25:44.166Z,12.30
2023-05-05T15:28:47.257Z,11.93
2023-05-05T15:31:51.009Z,26.88
2023-05-05T15:34:52.886Z,16.60
2023-05-05T15:37:54.953Z,16.58
2023-05-05T15:40:57.000Z,17.40
2023-05-05T15:43:59.090Z,14.88
2023-05-05T15:47:01.400Z,17.00
2023-05-05T15:50:03.342Z,19.35
2023-05-05T15:53:05.146Z,22.05
2023-05-05T15:56:07.138Z,20.38
2023-05-05T15:59:09.051Z,18.75
2023-05-05T16:02:11.077Z,19.00
2023-05-05T16:05:15.086Z,17.42
2023-05-05T16:08:17.092Z,18.33
2023-05-05T16:11:22.327Z,22.02
2023-05-05T16:14:24.821Z,21.98
2023-05-05T16:17:26.965Z,21.02
2023-05-05T16:20:29.925Z,22.58
2023-05-05T16:23:31.573Z,22.85
2023-05-05T16:26:34.904Z,24.85
2023-05-05T16:29:36.691Z,20.05
2023-05-05T16:32:38.744Z,23.20
2023-05-05T16:35:44.330Z,16.40
2023-05-05T16:38:47.285Z,11.98
2023-05-05T16:41:49.162Z,13.18
2023-05-05T16:44:51.398Z,6.93
2023-05-05T16:47:55.623Z,5.82
2023-05-05T16:50:57.849Z,5.10
2023-05-05T16:53:59.834Z,6.28
2023-05-05T16:57:04.012Z,8.20
2023-05-05T17:00:07.257Z,5.70
2023-05-05T17:03:09.725Z,7.28
2023-05-05T17:06:13.502Z,6.13
2023-05-05T17:09:15.841Z,6.90
2023-05-05T17:12:18.884Z,5.72
2023-05-05T17:15:22.019Z,5.60
2023-05-05T17:18:25.997Z,5.75
2023-05-05T17:21:29.494Z,9.40
2023-05-05T17:24:33.283Z,5.13
2023-05-05T17:27:35.357Z,5.20
2023-05-05T17:30:37.992Z,7.13
2023-05-05T17:33:43.018Z,4.35
2023-05-05T17:36:46.097Z,7.40
2023-05-05T17:39:51.332Z,4.70
2023-05-05T17:42:54.203Z,6.38
2023-05-05T17:45:57.207Z,5.18
2023-05-05T17:49:00.623Z,4.43
2023-05-05T17:52:02.811Z,3.42
2023-05-05T17:55:08.770Z,5.10
2023-05-05T17:58:11.024Z,2.90
2023-05-05T18:01:26.828Z,4.38
2023-05-05T18:04:29.396Z,4.90
2023-05-05T18:07:33.487Z,7.47
2023-05-05T18:10:35.459Z,3.10
2023-05-05T18:13:38.579Z,4.20
2023-05-05T18:16:44.002Z,3.58
2023-05-05T18:19:48.924Z,3.28
2023-05-05T18:22:51.031Z,4.75
2023-05-05T18:25:53.225Z,5.82
2023-05-05T18:28:55.179Z,5.13
2023-05-05T18:31:57.094Z,3.92
2023-05-05T18:34:59.043Z,4.32
2023-05-05T18:38:01.321Z,5.22
2023-05-05T18:41:03.309Z,5.20
2023-05-05T18:44:05.182Z,8.48
2023-05-05T18:47:07.956Z,6.10
2023-05-05T18:50:10.489Z,3.90
2023-05-05T18:53:14.845Z,3.47
2023-05-05T18:56:16.647Z,4.03
2023-05-05T18:59:18.702Z,4.70
2023-05-05T19:02:20.413Z,3.90
2023-05-05T19:05:22.202Z,6.57
2023-05-05T19:08:24.178Z,5.80
2023-05-05T19:11:26.274Z,4.80
2023-05-05T19:14:28.307Z,7.80
2023-05-05T19:17:30.577Z,6.32
2023-05-05T19:20:32.566Z,5.72
2023-05-05T19:23:36.212Z,4.82
2023-05-05T19:26:38.209Z,6.65
2023-05-05T19:29:40.701Z,5.30
2023-05-05T19:32:42.498Z,8.25
2023-05-05T19:35:45.009Z,7.43
2023-05-05T19:38:47.043Z,7.72
2023-05-05T19:41:49.020Z,7.53
2023-05-05T19:44:50.906Z,6.90
2023-05-05T19:47:52.920Z,6.65
2023-05-05T19:50:54.862Z,8.75
2023-05-05T19:53:56.924Z,7.88
2023-05-05T19:57:00.859Z,9.00
2023-05-05T20:00:02.752Z,8.88
2023-05-05T20:03:07.134Z,11.40
2023-05-05T20:06:09.043Z,8.57
2023-05-05T20:09:10.829Z,9.48
2023-05-05T20:12:13.021Z,9.07
2023-05-05T20:15:18.916Z,8.75
2023-05-05T20:18:20.876Z,9.45
2023-05-05T20:21:22.948Z,10.57
2023-05-05T20:24:25.070Z,9.00
2023-05-05T20:27:28.643Z,8.73
2023-05-05T20:30:31.404Z,8.38
2023-05-05T20:33:33.989Z,9.60
2023-05-05T20:36:35.882Z,9.68
2023-05-05T20:39:38.021Z,9.27
2023-05-05T20:42:39.924Z,9.02
2023-05-05T20:45:42.048Z,10.38
2023-05-05T20:48:44.537Z,9.48
2023-05-05T20:51:46.701Z,10.07
2023-05-05T20:54:48.500Z,9.77
2023-05-05T20:57:50.552Z,12.15
2023-05-05T21:00:52.728Z,10.82
2023-05-05T21:03:54.931Z,10.65
2023-05-05T21:06:58.847Z,11.02
2023-05-05T21:10:03.316Z,10.98
2023-05-05T21:13:05.321Z,12.30
2023-05-05T21:16:07.663Z,12.00
2023-05-05T21:19:09.626Z,11.43
2023-05-05T21:22:11.546Z,10.77
2023-05-05T21:25:21.445Z,10.80
2023-05-05T21:28:23.772Z,11.77
2023-05-05T21:31:26.174Z,13.88
2023-05-05T21:34:28.340Z,13.27
2023-05-05T21:37:30.905Z,12.77
2023-05-05T21:40:33.052Z,12.20
2023-05-05T21:43:35.324Z,14.50
2023-05-05T21:46:37.449Z,12.18
2023-05-05T21:49:39.620Z,13.65
2023-05-05T21:52:41.622Z,14.65
2023-05-05T21:55:43.620Z,14.20
2023-05-05T21:58:46.002Z,16.65
2023-05-05T22:01:54.509Z,16.30
2023-05-05T22:04:56.583Z,14.98
2023-05-05T22:07:58.427Z,14.05
2023-05-05T22:11:00.330Z,16.20
2023-05-05T22:14:02.408Z,16.05
2023-05-05T22:17:04.358Z,14.32
2023-05-05T22:20:08.966Z,17.45
2023-05-05T22:23:11.315Z,16.52
2023-05-05T22:26:13.290Z,17.30
2023-05-05T22:29:15.145Z,16.77
2023-05-05T22:32:17.254Z,16.08
2023-05-05T22:35:19.400Z,16.38
2023-05-05T22:38:21.247Z,15.45
2023-05-05T22:41:23.228Z,15.57
2023-05-05T22:44:25.440Z,16.38
2023-05-05T22:47:27.108Z,16.90
2023-05-05T22:50:29.104Z,14.68
2023-05-05T22:53:30.928Z,18.35
2023-05-05T22:56:32.780Z,19.65
2023-05-05T22:59:34.586Z,20.05
2023-05-05T23:02:37.218Z,16.90
2023-05-05T23:05:39.142Z,19.50
2023-05-05T23:08:42.053Z,20.13
2023-05-05T23:11:43.882Z,17.23
2023-05-05T23:14:46.047Z,15.15
2023-05-05T23:17:47.952Z,14.80
2023-05-05T23:20:49.870Z,14.20
2023-05-05T23:23:51.927Z,12.75
2023-05-05T23:26:53.765Z,14.48
2023-05-05T23:29:55.697Z,15.95
2023-05-05T23:32:58.023Z,14.07
2023-05-05T23:35:59.837Z,13.52
2023-05-05T23:39:02.865Z,12.85
2023-05-05T23:42:04.563Z,12.98
2023-05-05T23:45:06.863Z,10.88
2023-05-05T23:48:08.876Z,11.18
2023-05-05T23:51:10.887Z,10.75
2023-05-05T23:54:12.705Z,11.27
2023-05-05T23:57:14.527Z,9.30
